createdAt,value
2023-01-29T00:02:04.038Z,0.33
2023-01-29T00:04:31.281Z,0.24
2023-01-29T00:06:58.629Z,0.25
2023-01-29T00:09:25.264Z,0.35
2023-01-29T00:11:52.325Z,0.32
2023-01-29T00:14:19.166Z,0.30
2023-01-29T00:16:45.846Z,0.15
2023-01-29T00:19:12.662Z,0.11
2023-01-29T00:21:39.305Z,-0.11
2023-01-29T00:24:06.032Z,-0.07
2023-01-29T00:26:32.800Z,-0.22
2023-01-29T00:29:02.468Z,-0.25
2023-01-29T00:31:30.018Z,-0.05
2023-01-29T00:33:56.992Z,-0.16
2023-01-29T00:36:24.357Z,0.14
2023-01-29T00:38:58.021Z,0.24
2023-01-29T00:41:47.457Z,0.14
2023-01-29T00:44:33.873Z,0.30
2023-01-29T00:47:00.679Z,0.40
2023-01-29T00:49:27.358Z,0.43
2023-01-29T00:52:12.673Z,0.47
2023-01-29T00:54:39.411Z,0.39
2023-01-29T00:57:06.344Z,0.41
2023-01-29T00:59:33.256Z,0.38
2023-01-29T01:02:19.058Z,0.40
2023-01-29T01:04:46.019Z,0.43
2023-01-29T01:09:58.548Z,0.46
2023-01-29T01:12:25.596Z,0.46
2023-01-29T01:14:52.953Z,0.47
2023-01-29T01:17:19.693Z,0.65
2023-01-29T01:19:47.495Z,0.62
2023-01-29T01:22:14.108Z,0.66
2023-01-29T01:24:40.905Z,0.72
2023-01-29T01:27:08.207Z,0.49
2023-01-29T01:29:35.865Z,0.57
2023-01-29T01:32:02.509Z,0.54
2023-01-29T01:34:30.807Z,0.24
2023-01-29T01:36:58.978Z,0.37
2023-01-29T01:39:25.641Z,0.29
2023-01-29T01:41:55.706Z,0.12
2023-01-29T01:44:51.350Z,0.19
2023-01-29T01:47:43.659Z,0.08
2023-01-29T01:50:16.483Z,-0.06
2023-01-29T01:52:46.154Z,-0.14
2023-01-29T05:23:29.875Z,-4.91
2023-01-29T05:26:36.616Z,-2.45
2023-01-29T05:29:13.218Z,-2.07
2023-01-29T05:31:46.082Z,-1.69
2023-01-29T05:34:42.397Z,-1.30
2023-01-29T05:37:13.085Z,-1.15
2023-01-29T05:39:39.892Z,-1.13
2023-01-29T05:42:06.925Z,-0.80
2023-01-29T05:44:33.818Z,-0.61
2023-01-29T05:47:02.160Z,-0.67
2023-01-29T05:49:29.024Z,-0.52
2023-01-29T05:51:55.868Z,-0.54
2023-01-29T05:54:22.648Z,-0.49
2023-01-29T05:56:49.352Z,-0.31
2023-01-29T05:59:16.067Z,-0.59
2023-01-29T06:01:43.102Z,-0.63
2023-01-29T06:04:09.796Z,-0.55
2023-01-29T06:06:40.413Z,-0.49
2023-01-29T06:09:06.941Z,-0.55
2023-01-29T06:11:33.875Z,-0.45
2023-01-29T06:14:01.461Z,-0.62
2023-01-29T06:16:28.414Z,-0.67
2023-01-29T06:18:55.115Z,-0.60
2023-01-29T06:21:21.807Z,-0.50
2023-01-29T06:23:48.815Z,-0.31
2023-01-29T06:26:15.718Z,-0.15
2023-01-29T06:28:43.108Z,-0.07
2023-01-29T06:31:37.945Z,0.20
2023-01-29T06:33:56.475Z,0.41
2023-01-29T06:36:23.108Z,0.35
2023-01-29T06:38:49.942Z,0.35
2023-01-29T06:41:18.256Z,0.43
2023-01-29T06:43:45.335Z,0.71
2023-01-29T06:46:12.094Z,1.04
2023-01-29T06:48:38.821Z,1.28
2023-01-29T06:51:06.622Z,1.44
2023-01-29T06:53:34.602Z,1.60
2023-01-29T06:56:01.276Z,1.68
2023-01-29T06:58:28.215Z,1.79
2023-01-29T07:01:04.725Z,1.80
2023-01-29T07:03:32.971Z,1.88
2023-01-29T07:05:59.559Z,1.89
2023-01-29T07:08:26.135Z,2.10
2023-01-29T07:10:52.753Z,2.21
2023-01-29T07:13:19.771Z,2.48
2023-01-29T07:15:46.430Z,2.66
2023-01-29T07:18:14.180Z,2.68
2023-01-29T07:20:41.413Z,2.83
2023-01-29T07:23:12.101Z,3.09
2023-01-29T07:25:39.014Z,3.22
2023-01-29T07:28:06.458Z,3.21
2023-01-29T07:30:33.135Z,3.35
2023-01-29T07:33:07.726Z,3.51
2023-01-29T07:35:42.231Z,3.75
2023-01-29T07:38:09.437Z,3.78
2023-01-29T07:40:38.314Z,3.88
2023-01-29T07:43:06.280Z,3.96
2023-01-29T07:45:34.748Z,4.15
2023-01-29T07:48:01.501Z,4.22
2023-01-29T07:50:28.300Z,4.24
2023-01-29T07:52:55.218Z,4.50
2023-01-29T07:55:22.001Z,4.50
2023-01-29T07:57:57.428Z,4.67
2023-01-29T08:00:24.289Z,4.70
2023-01-29T08:02:51.002Z,4.85
2023-01-29T08:05:19.238Z,5.05
2023-01-29T08:07:49.345Z,5.19
2023-01-29T08:10:24.255Z,5.23
2023-01-29T08:12:56.339Z,5.40
2023-01-29T08:15:23.508Z,5.57
2023-01-29T08:20:37.626Z,5.18
2023-01-29T08:23:07.832Z,5.26
2023-01-29T08:25:34.924Z,5.27
2023-01-29T08:28:01.571Z,5.36
2023-01-29T08:30:30.358Z,5.26
2023-01-29T08:32:56.965Z,5.40
2023-01-29T08:35:24.122Z,5.27
2023-01-29T08:37:54.658Z,4.85
2023-01-29T08:40:21.546Z,5.11
2023-01-29T08:42:48.163Z,5.24
2023-01-29T08:45:15.024Z,5.37
2023-01-29T08:47:48.560Z,5.50
2023-01-29T08:50:16.717Z,5.54
2023-01-29T08:52:43.971Z,5.55
2023-01-29T08:55:12.167Z,5.49
2023-01-29T08:57:39.015Z,5.61
2023-01-29T09:00:06.824Z,5.53
2023-01-29T09:02:33.555Z,5.64
2023-01-29T09:05:00.639Z,5.67
2023-01-29T09:07:28.790Z,5.93
2023-01-29T09:09:55.788Z,6.14
2023-01-29T09:12:22.385Z,6.16
2023-01-29T09:14:49.069Z,6.22
2023-01-29T09:17:15.701Z,6.34
2023-01-29T09:19:42.382Z,6.27
2023-01-29T09:22:10.987Z,6.15
2023-01-29T09:24:38.663Z,6.27
2023-01-29T09:27:06.221Z,6.22
2023-01-29T09:29:35.800Z,6.49
2023-01-29T09:32:07.011Z,6.77
2023-01-29T09:34:37.326Z,6.82
2023-01-29T09:37:04.085Z,6.85
2023-01-29T09:39:30.650Z,7.24
2023-01-29T09:42:08.020Z,7.48
2023-01-29T09:45:03.341Z,7.35
2023-01-29T09:47:31.450Z,7.33
2023-01-29T09:50:05.122Z,7.08
2023-01-29T14:13:11.420Z,3.03
2023-01-29T14:15:40.158Z,4.43
2023-01-29T14:18:08.497Z,4.65
2023-01-29T14:20:48.819Z,4.82
2023-01-29T14:23:44.683Z,4.85
2023-01-29T14:26:26.866Z,4.93
2023-01-29T14:29:00.976Z,4.85
2023-01-29T14:31:59.185Z,4.92
2023-01-29T14:34:35.400Z,5.20
2023-01-29T14:37:26.504Z,5.29
2023-01-29T14:39:56.194Z,5.17
2023-01-29T14:42:25.094Z,5.32
2023-01-29T14:44:54.765Z,5.29
2023-01-29T14:47:38.551Z,5.44
2023-01-29T14:50:35.179Z,5.42
2023-01-29T14:53:45.235Z,5.66
2023-01-29T14:56:17.530Z,5.80
2023-01-29T14:59:18.076Z,5.89
2023-01-29T15:01:53.040Z,5.64
2023-01-29T15:04:25.939Z,5.71
2023-01-29T15:07:05.503Z,5.77
2023-01-29T15:09:41.961Z,5.89
2023-01-29T15:12:31.318Z,6.05
2023-01-29T15:15:37.675Z,6.29
2023-01-29T15:18:08.639Z,6.13
2023-01-29T15:20:38.572Z,6.13
2023-01-29T15:23:28.624Z,6.36
2023-01-29T15:25:58.767Z,6.40
2023-01-29T15:28:26.872Z,6.28
2023-01-29T15:30:57.164Z,6.27
2023-01-29T15:33:25.903Z,6.28
2023-01-29T15:36:06.698Z,6.00
2023-01-29T15:38:35.736Z,6.27
2023-01-29T15:41:18.497Z,6.21
2023-01-29T15:43:50.700Z,6.34
2023-01-29T15:46:22.869Z,6.40
2023-01-29T15:48:51.652Z,6.43
2023-01-29T15:51:24.067Z,6.26
2023-01-29T15:53:57.392Z,6.21
2023-01-29T15:56:29.702Z,6.10
2023-01-29T15:58:58.327Z,6.11
2023-01-29T16:01:27.519Z,5.92
2023-01-29T16:03:59.120Z,5.86
2023-01-29T16:06:27.436Z,6.06
2023-01-29T16:08:55.680Z,6.08
2023-01-29T16:11:23.924Z,6.17
2023-01-29T16:13:52.029Z,6.16
2023-01-29T16:16:29.196Z,6.17
2023-01-29T16:19:00.775Z,6.39
2023-01-29T16:21:37.445Z,6.37
2023-01-29T16:24:11.875Z,6.29
2023-01-29T16:26:43.458Z,6.25
2023-01-29T16:29:13.447Z,6.24
2023-01-29T16:31:42.537Z,6.17
2023-01-29T16:34:34.600Z,6.37
2023-01-29T16:37:04.474Z,6.42
2023-01-29T16:39:38.289Z,6.46
2023-01-29T16:42:13.085Z,6.37
2023-01-29T16:44:41.253Z,6.40
2023-01-29T16:47:33.017Z,6.52
2023-01-29T16:50:20.035Z,6.59
2023-01-29T16:53:33.322Z,6.54
2023-01-29T16:56:02.947Z,6.38
2023-01-29T16:58:31.229Z,6.48
2023-01-29T17:01:05.320Z,6.49
2023-01-29T17:03:34.099Z,6.52
2023-01-29T17:06:12.026Z,6.51
2023-01-29T17:08:43.815Z,6.59
2023-01-29T17:11:13.100Z,6.75
2023-01-29T17:13:42.983Z,6.69
2023-01-29T17:16:21.358Z,6.82
2023-01-29T17:18:50.145Z,6.78
2023-01-29T17:21:18.221Z,6.76
2023-01-29T17:23:46.369Z,6.78
2023-01-29T17:26:14.783Z,6.82
2023-01-29T17:28:42.816Z,6.74
2023-01-29T17:31:10.927Z,6.74
2023-01-29T17:33:42.937Z,6.84
2023-01-29T17:36:12.582Z,6.96
2023-01-29T17:38:43.307Z,7.00
2023-01-29T17:41:27.352Z,7.01
2023-01-29T17:43:55.932Z,6.82
2023-01-29T17:46:28.192Z,6.80
2023-01-29T17:48:56.352Z,6.81
2023-01-29T17:51:25.093Z,6.79
2023-01-29T17:53:53.328Z,6.68
2023-01-29T21:51:38.675Z,1.44
2023-01-29T21:54:07.267Z,2.96
2023-01-29T21:56:35.371Z,3.23
2023-01-29T21:59:03.352Z,3.43
2023-01-29T22:01:41.471Z,3.84
2023-01-29T22:04:09.844Z,3.96
2023-01-29T22:06:38.395Z,4.09
2023-01-29T22:09:07.509Z,4.33
2023-01-29T22:11:36.288Z,4.46
2023-01-29T22:14:05.081Z,4.57
2023-01-29T22:16:33.436Z,4.62
2023-01-29T22:19:01.571Z,4.66
2023-01-29T22:21:29.904Z,4.89
2023-01-29T22:23:58.078Z,4.81
2023-01-29T22:26:26.350Z,4.53
2023-01-29T22:28:54.524Z,4.64
2023-01-29T22:31:22.598Z,4.84
2023-01-29T22:33:54.357Z,4.97
2023-01-29T22:36:22.373Z,4.97
2023-01-29T22:38:50.601Z,4.63
2023-01-29T22:41:18.681Z,4.90
2023-01-29T22:43:46.747Z,5.00
2023-01-29T22:46:14.951Z,5.17
2023-01-29T22:48:45.065Z,5.09
2023-01-29T22:51:13.970Z,4.96
2023-01-29T22:53:52.864Z,5.09
2023-01-29T22:56:25.299Z,5.21
2023-01-29T22:58:55.072Z,5.21
2023-01-29T23:01:28.009Z,5.29
2023-01-29T23:03:56.718Z,5.47
2023-01-29T23:06:25.017Z,5.66
2023-01-29T23:08:53.068Z,5.75
2023-01-29T23:11:21.616Z,5.79
2023-01-29T23:13:54.309Z,5.85
2023-01-29T23:16:26.261Z,6.03
2023-01-29T23:18:56.229Z,6.32
2023-01-29T23:21:25.277Z,5.85
2023-01-29T23:23:58.344Z,5.88
2023-01-29T23:26:45.244Z,6.02
2023-01-29T23:29:13.449Z,6.24
2023-01-29T23:31:41.633Z,6.33
2023-01-29T23:34:09.965Z,6.24
2023-01-29T23:36:38.131Z,6.22
2023-01-29T23:39:06.479Z,5.95
2023-01-29T23:41:35.559Z,5.95
2023-01-29T23:44:04.470Z,5.89
2023-01-29T23:46:32.685Z,5.72
2023-01-29T23:49:00.930Z,5.89
2023-01-29T23:51:29.211Z,5.73
2023-01-29T23:53:57.399Z,5.89
2023-01-29T23:56:25.659Z,6.26
2023-01-29T23:58:56.820Z,6.55
